Terminal Aerodrome Forecast
Issued by NWS Charleston, WV

Current Version | Previous Version | Graphics & Text | Print | Product List | Glossary On
Versions: 1 2 3 4 5 6 7 8 9 10 11 12 13 14 15 16 17 18 19 20 21
954
FTUS41 KRLX 251136
TAFEKN
TAF
KEKN 251136Z 2512/2612 00000KT 4SM BR SKC
     FM251230 00000KT P6SM SKC
     FM251800 27006KT P6SM FEW045
     FM260200 00000KT P6SM BKN080=

USA.gov is the U.S. government's official web portal to all federal, state and local government web resources and services.